Time;durP1;ratioP1;P1;durP2;ratioP2;P2;SDS_P1;SDS_P2;PMS_P1;PMS_P2;Temp;Humidity;BMP_temperature;BMP_pressure;BME280_temperature;BME280_humidity;BME280_pressure;Samples;Min_cycle;Max_cycle;Signal;HPM_P1;HPM_P2
2023/01/27 00:00:24;;;;;;;;;;;;;;;7.50;49.28;102251.47;6240140;23;19943;-86
2023/01/27 00:02:49;;;;;;;;;;;;;;;7.50;49.56;102256.81;6242434;22;19953;-86
2023/01/27 00:05:15;;;;;;;;;;;;;;;7.51;49.75;102249.63;6241311;23;19911;-86
2023/01/27 00:07:46;;;;;;;;;;;;;;;7.51;49.58;102247.78;6241977;23;19907;-87
2023/01/27 00:10:14;;;;;;;;;;;;;;;7.52;49.58;102249.44;6214634;23;20667;-87
2023/01/27 00:15:24;;;;;;;;;;;;;;;7.51;49.33;102239.78;6241185;23;20469;-86
2023/01/27 00:17:49;;;;;;;;;;;;;;;7.52;49.25;102244.09;6242240;23;19907;-85
2023/01/27 00:24:34;;;;;;;;;;;;;;;7.53;49.30;102237.75;6241858;23;19930;-87
2023/01/27 00:25:49;;;;;;;;;;;;;;;7.53;49.65;102239.59;6241661;23;20258;-86
2023/01/27 00:28:22;;;;;;;;;;;;;;;7.54;49.40;102252.75;6241081;23;19965;-87
2023/01/27 00:30:50;;;;;;;;;;;;;;;7.54;49.29;102243.91;6241369;23;19911;-87
2023/01/27 00:33:25;;;;;;;;;;;;;;;7.55;49.36;102251.75;6241931;22;19915;-87
2023/01/27 00:36:05;;;;;;;;;;;;;;;7.54;49.65;102247.44;6242606;23;19911;-87
2023/01/27 00:38:31;;;;;;;;;;;;;;;7.54;49.41;102244.75;6241281;23;19907;-86
2023/01/27 00:41:18;;;;;;;;;;;;;;;7.54;49.52;102250.09;6242909;23;19907;-86
2023/01/27 00:43:46;;;;;;;;;;;;;;;7.54;49.50;102252.75;6244263;22;19938;-86
2023/01/27 00:46:12;;;;;;;;;;;;;;;7.55;49.84;102251.75;6243378;23;19908;-86
2023/01/27 00:48:37;;;;;;;;;;;;;;;7.56;49.68;102258.72;6243573;23;19969;-86
2023/01/27 00:51:03;;;;;;;;;;;;;;;7.57;49.47;102256.88;6241037;23;19978;-86
2023/01/27 00:53:28;;;;;;;;;;;;;;;7.57;49.58;102252.38;6243317;22;19926;-86
2023/01/27 00:55:54;;;;;;;;;;;;;;;7.58;49.52;102251.34;6244363;23;19911;-86
2023/01/27 00:58:21;;;;;;;;;;;;;;;7.58;49.76;102261.19;6243035;23;19911;-86
2023/01/27 01:00:46;;;;;;;;;;;;;;;7.57;49.81;102260.38;6243276;23;20327;-87
2023/01/27 01:03:11;;;;;;;;;;;;;;;7.57;49.84;102259.56;6244267;22;19907;-87
2023/01/27 01:05:37;;;;;;;;;;;;;;;7.58;50.03;102256.69;6243506;23;20371;-86
2023/01/27 01:08:03;;;;;;;;;;;;;;;7.60;50.02;102263.66;6243867;23;19911;-86
2023/01/27 01:10:28;;;;;;;;;;;;;;;7.61;49.81;102266.16;6243181;23;19912;-87
2023/01/27 01:12:54;;;;;;;;;;;;;;;7.63;49.65;102269.44;6243308;22;20278;-86
2023/01/27 01:15:19;;;;;;;;;;;;;;;7.64;49.59;102265.75;6243113;23;19907;-86
2023/01/27 01:17:44;;;;;;;;;;;;;;;7.64;50.06;102263.09;6242940;23;20327;-86
2023/01/27 01:20:12;;;;;;;;;;;;;;;7.66;49.77;102262.91;6244270;23;19907;-86
2023/01/27 01:22:37;;;;;;;;;;;;;;;7.66;50.07;102260.22;6242832;22;19911;-86
2023/01/27 01:25:03;;;;;;;;;;;;;;;7.67;49.68;102256.53;6243591;23;20328;-87
2023/01/27 01:27:28;;;;;;;;;;;;;;;7.67;50.02;102257.38;6242885;23;19974;-87
2023/01/27 01:29:54;;;;;;;;;;;;;;;7.68;49.75;102266.19;6243379;23;19920;-87
2023/01/27 01:32:19;;;;;;;;;;;;;;;7.68;49.91;102261.69;6243331;22;19953;-86
2023/01/27 01:34:45;;;;;;;;;;;;;;;7.69;50.03;102262.50;6243634;23;20030;-86
2023/01/27 01:37:10;;;;;;;;;;;;;;;7.70;50.01;102262.31;6240241;22;20208;-86
2023/01/27 01:39:35;;;;;;;;;;;;;;;7.71;49.59;102263.13;6236004;23;19927;-86
2023/01/27 01:42:01;;;;;;;;;;;;;;;7.69;49.62;102263.34;6239198;23;19934;-86
2023/01/27 01:44:28;;;;;;;;;;;;;;;7.68;49.57;102259.00;6238140;22;20321;-86
2023/01/27 01:46:54;;;;;;;;;;;;;;;7.68;49.93;102259.00;6238454;22;19907;-86
2023/01/27 01:49:22;;;;;;;;;;;;;;;7.69;49.87;102257.16;6209208;22;19950;-86
2023/01/27 01:51:50;;;;;;;;;;;;;;;7.69;49.72;102259.84;6208923;23;19955;-86
2023/01/27 01:54:25;;;;;;;;;;;;;;;7.67;49.49;102261.88;6208426;23;19915;-86
2023/01/27 01:56:56;;;;;;;;;;;;;;;7.69;49.60;102258.00;6208470;23;19919;-86
2023/01/27 01:59:27;;;;;;;;;;;;;;;7.67;49.52;102251.22;6207951;23;19911;-86
2023/01/27 02:01:54;;;;;;;;;;;;;;;7.67;49.82;102253.88;6208662;23;20194;-86
2023/01/27 02:04:24;;;;;;;;;;;;;;;7.65;49.41;102255.91;6207638;23;19915;-86
2023/01/27 02:07:02;;;;;;;;;;;;;;;7.64;49.91;102262.25;6209027;23;19923;-87
2023/01/27 02:09:27;;;;;;;;;;;;;;;7.62;49.62;102258.97;6206701;23;19911;-86
2023/01/27 02:11:53;;;;;;;;;;;;;;;7.63;49.71;102255.28;6209893;23;20417;-86
2023/01/27 02:14:19;;;;;;;;;;;;;;;7.62;49.88;102256.31;6209656;23;19938;-86
2023/01/27 02:16:45;;;;;;;;;;;;;;;7.65;49.81;102256.75;6207142;23;19912;-86
2023/01/27 02:19:17;;;;;;;;;;;;;;;7.68;50.06;102248.34;6206172;23;19916;-86
2023/01/27 02:21:42;;;;;;;;;;;;;;;7.71;49.84;102255.13;6208941;23;19912;-86
2023/01/27 02:24:11;;;;;;;;;;;;;;;7.72;49.93;102254.13;6210285;23;19961;-86
2023/01/27 02:26:42;;;;;;;;;;;;;;;7.72;49.93;102259.44;6209558;23;20332;-86
2023/01/27 02:29:09;;;;;;;;;;;;;;;7.72;50.11;102262.13;6208614;23;19933;-86
2023/01/27 02:31:34;;;;;;;;;;;;;;;7.72;50.10;102257.63;6209457;23;20282;-86
2023/01/27 02:34:04;;;;;;;;;;;;;;;7.73;49.80;102258.47;6210625;23;19923;-85
2023/01/27 02:36:32;;;;;;;;;;;;;;;7.73;49.70;102261.13;6210657;23;19963;-86
2023/01/27 02:39:00;;;;;;;;;;;;;;;7.74;50.12;102260.13;6233427;23;19978;-86
2023/01/27 02:41:36;;;;;;;;;;;;;;;7.74;49.84;102258.28;6238481;23;19943;-86
2023/01/27 02:44:02;;;;;;;;;;;;;;;7.74;49.85;102257.44;6241138;23;19957;-86
2023/01/27 02:46:28;;;;;;;;;;;;;;;7.74;49.85;102265.44;6238830;23;19915;-86
2023/01/27 02:48:53;;;;;;;;;;;;;;;7.73;49.98;102267.28;6239984;22;19948;-86
2023/01/27 02:51:19;;;;;;;;;;;;;;;7.74;49.99;102271.59;6237857;23;19915;-86
2023/01/27 02:53:44;;;;;;;;;;;;;;;7.76;50.38;102268.75;6239567;23;19912;-86
2023/01/27 02:56:10;;;;;;;;;;;;;;;7.77;50.36;102270.41;6240639;23;20347;-86
2023/01/27 02:58:35;;;;;;;;;;;;;;;7.77;50.10;102267.72;6238428;22;20355;-86
2023/01/27 03:01:00;;;;;;;;;;;;;;;7.76;50.03;102271.41;6239850;23;20007;-87
2023/01/27 03:03:26;;;;;;;;;;;;;;;7.74;50.15;102278.78;6237489;23;20142;-86
2023/01/27 03:05:51;;;;;;;;;;;;;;;7.73;50.19;102282.47;6240348;23;19908;-86
2023/01/27 03:08:17;;;;;;;;;;;;;;;7.73;50.01;102277.13;6212527;23;19961;-86
2023/01/27 03:10:42;;;;;;;;;;;;;;;7.75;50.17;102272.44;6239559;23;19990;-86
2023/01/27 03:13:08;;;;;;;;;;;;;;;7.77;49.90;102278.41;6239510;23;19955;-86
2023/01/27 03:18:17;;;;;;;;;;;;;;;7.77;50.07;102278.41;6238317;22;19918;-86
2023/01/27 03:20:44;;;;;;;;;;;;;;;7.79;50.10;102271.84;6238238;23;20014;-86
2023/01/27 03:23:10;;;;;;;;;;;;;;;7.81;50.48;102268.97;6237661;23;19911;-86
2023/01/27 03:25:39;;;;;;;;;;;;;;;7.83;50.34;102274.94;6238246;23;19911;-86
2023/01/27 03:28:04;;;;;;;;;;;;;;;7.85;49.94;102275.59;6237861;22;19982;-86
2023/01/27 03:30:29;;;;;;;;;;;;;;;7.86;49.92;102277.22;6240103;23;19939;-86
2023/01/27 03:32:55;;;;;;;;;;;;;;;7.86;49.91;102271.88;6240700;23;19908;-86
2023/01/27 03:35:22;;;;;;;;;;;;;;;7.86;50.14;102285.25;6239430;23;20271;-86
2023/01/27 03:46:21;;;;;;;;;;;;;;;7.87;50.21;102270.88;6239986;23;20317;-86
2023/01/27 03:48:53;;;;;;;;;;;;;;;7.87;50.09;102273.53;6237292;22;19991;-86
2023/01/27 03:51:19;;;;;;;;;;;;;;;7.89;50.53;102271.50;6239690;23;19915;-86
2023/01/27 03:53:45;;;;;;;;;;;;;;;7.90;50.39;102273.19;6238892;23;19911;-86
2023/01/27 03:56:11;;;;;;;;;;;;;;;7.93;49.84;102275.47;6238931;23;19957;-86
2023/01/27 03:58:40;;;;;;;;;;;;;;;7.91;49.94;102274.84;6238495;22;19953;-86
2023/01/27 04:01:15;;;;;;;;;;;;;;;7.92;50.12;102265.81;6238333;23;20250;-86
2023/01/27 04:09:11;;;;;;;;;;;;;;;7.84;50.38;102273.94;6236334;22;19934;-86
2023/01/27 04:11:56;;;;;;;;;;;;;;;7.84;50.52;102265.94;6239658;23;19919;-86
2023/01/27 04:14:23;;;;;;;;;;;;;;;7.83;50.56;102273.09;6239534;23;19911;-86
2023/01/27 04:16:52;;;;;;;;;;;;;;;7.85;50.61;102275.59;6242020;22;20251;-86
2023/01/27 04:19:18;;;;;;;;;;;;;;;7.87;50.25;102273.53;6239994;22;19930;-86
2023/01/27 04:21:44;;;;;;;;;;;;;;;7.88;50.21;102272.53;6240706;23;20386;-86
2023/01/27 04:24:16;;;;;;;;;;;;;;;7.91;50.22;102280.16;6240404;23;19969;-86
2023/01/27 04:26:45;;;;;;;;;;;;;;;7.90;50.15;102283.84;6241779;23;19957;-86
2023/01/27 04:29:11;;;;;;;;;;;;;;;7.90;50.51;102283.84;6240407;22;19938;-86
2023/01/27 04:31:37;;;;;;;;;;;;;;;7.90;50.47;102281.19;6241584;23;19942;-86
2023/01/27 04:34:02;;;;;;;;;;;;;;;7.91;50.60;102280.16;6240164;23;20305;-86
2023/01/27 04:36:28;;;;;;;;;;;;;;;7.94;50.32;102287.78;6240519;23;20103;-86
2023/01/27 04:38:53;;;;;;;;;;;;;;;7.96;50.33;102282.25;6240567;22;20243;-86
2023/01/27 04:41:18;;;;;;;;;;;;;;;7.98;50.65;102286.38;6241738;23;19915;-86
2023/01/27 04:43:44;;;;;;;;;;;;;;;7.98;50.32;102280.22;6240140;23;20297;-86
2023/01/27 04:46:09;;;;;;;;;;;;;;;8.00;50.29;102292.34;6240010;23;19961;-85
2023/01/27 04:48:34;;;;;;;;;;;;;;;8.02;50.59;102287.63;6239824;22;19921;-86
2023/01/27 04:51:00;;;;;;;;;;;;;;;8.04;50.40;102284.75;6241387;23;20263;-86
2023/01/27 04:53:25;;;;;;;;;;;;;;;8.06;50.18;102304.06;6240637;23;19911;-86
2023/01/27 04:55:50;;;;;;;;;;;;;;;8.08;50.52;102297.56;6240382;23;19912;-86
2023/01/27 04:58:16;;;;;;;;;;;;;;;8.08;50.16;102297.56;6240334;22;20349;-86
2023/01/27 05:00:43;;;;;;;;;;;;;;;8.08;50.43;102302.91;6241119;23;20402;-86
2023/01/27 05:03:09;;;;;;;;;;;;;;;8.12;50.21;102304.16;6241178;23;20483;-86
2023/01/27 05:05:34;;;;;;;;;;;;;;;8.13;49.95;102302.31;6240329;23;19939;-86
2023/01/27 05:08:03;;;;;;;;;;;;;;;8.12;50.33;102309.50;6239065;22;20366;-86
2023/01/27 05:10:28;;;;;;;;;;;;;;;8.12;50.43;102309.50;6213384;23;20339;-86
2023/01/27 05:12:54;;;;;;;;;;;;;;;8.13;50.27;102310.31;6240749;23;19915;-86
2023/01/27 05:15:19;;;;;;;;;;;;;;;8.14;50.42;102312.78;6213630;23;19993;-86
2023/01/27 05:17:45;;;;;;;;;;;;;;;8.14;50.46;102312.78;6240438;22;19907;-85
2023/01/27 05:20:10;;;;;;;;;;;;;;;8.15;50.37;102317.09;6240009;23;19914;-86
2023/01/27 05:22:35;;;;;;;;;;;;;;;8.17;50.63;102319.59;6240953;23;20516;-86
2023/01/27 05:25:01;;;;;;;;;;;;;;;8.18;50.62;102324.72;6241825;23;19986;-86
2023/01/27 05:27:26;;;;;;;;;;;;;;;8.21;50.75;102322.69;6239482;22;19915;-86
2023/01/27 05:29:51;;;;;;;;;;;;;;;8.23;50.75;102334.00;6212778;23;20300;-86
2023/01/27 05:32:17;;;;;;;;;;;;;;;8.24;50.52;102328.44;6241356;23;19915;-86
2023/01/27 05:34:42;;;;;;;;;;;;;;;8.25;50.60;102330.09;6240918;23;20267;-86
2023/01/27 05:37:07;;;;;;;;;;;;;;;8.28;50.87;102326.25;6241583;22;19918;-86
2023/01/27 05:39:33;;;;;;;;;;;;;;;8.32;50.46;102324.81;6239958;23;19907;-86
2023/01/27 05:41:58;;;;;;;;;;;;;;;8.34;50.62;102328.97;6241280;23;19908;-86
2023/01/27 05:44:23;;;;;;;;;;;;;;;8.38;50.89;102316.88;6241261;23;20628;-86
2023/01/27 05:46:49;;;;;;;;;;;;;;;8.41;50.94;102329.84;6241516;23;19911;-86
2023/01/27 05:49:14;;;;;;;;;;;;;;;8.42;50.41;102331.50;6213655;23;19911;-86
2023/01/27 05:51:40;;;;;;;;;;;;;;;8.45;50.73;102330.31;6238331;23;19911;-87
2023/01/27 05:54:05;;;;;;;;;;;;;;;8.46;50.95;102331.94;6241221;23;19908;-86
2023/01/27 05:56:31;;;;;;;;;;;;;;;8.47;50.87;102342.44;6240386;23;20327;-86
2023/01/27 05:58:57;;;;;;;;;;;;;;;8.49;50.78;102336.91;6239393;22;19929;-86
2023/01/27 06:01:25;;;;;;;;;;;;;;;8.52;50.81;102341.03;6237984;23;19907;-87
2023/01/27 06:03:51;;;;;;;;;;;;;;;8.52;50.97;102347.19;6238717;23;19911;-87
2023/01/27 06:06:17;;;;;;;;;;;;;;;8.53;50.71;102348.84;6235550;23;19961;-86
2023/01/27 06:08:43;;;;;;;;;;;;;;;8.55;50.92;102353.97;6238207;22;19947;-87
2023/01/27 06:11:08;;;;;;;;;;;;;;;8.56;50.70;102345.78;6238345;23;19922;-87
2023/01/27 06:13:34;;;;;;;;;;;;;;;8.59;51.05;102361.41;6238668;23;20156;-87
2023/01/27 06:16:04;;;;;;;;;;;;;;;8.61;51.01;102361.22;6211255;23;19912;-87
2023/01/27 06:18:29;;;;;;;;;;;;;;;8.66;50.72;102350.78;6238737;22;19922;-86
2023/01/27 06:20:58;;;;;;;;;;;;;;;8.66;50.99;102358.78;6238167;23;19982;-87
2023/01/27 06:23:24;;;;;;;;;;;;;;;8.66;51.13;102362.28;6238097;23;19919;-86
2023/01/27 06:25:49;;;;;;;;;;;;;;;8.66;51.13;102359.63;6237983;23;19961;-87
2023/01/27 06:28:15;;;;;;;;;;;;;;;8.67;50.94;102363.94;6237877;22;19907;-87
2023/01/27 06:30:41;;;;;;;;;;;;;;;8.69;50.79;102359.22;6239532;23;19990;-87
2023/01/27 06:33:07;;;;;;;;;;;;;;;8.73;51.08;102360.47;6238745;23;19962;-87
2023/01/27 06:35:33;;;;;;;;;;;;;;;8.77;51.07;102366.25;6236367;23;19923;-87
2023/01/27 06:37:59;;;;;;;;;;;;;;;8.78;50.77;102371.41;6238401;22;19915;-87
2023/01/27 06:40:25;;;;;;;;;;;;;;;8.81;50.73;102382.75;6240039;23;20260;-87
2023/01/27 06:42:50;;;;;;;;;;;;;;;8.83;51.36;102372.69;6239537;23;19915;-87
2023/01/27 06:45:16;;;;;;;;;;;;;;;8.87;51.20;102384.63;6239677;23;20484;-87
2023/01/27 06:47:42;;;;;;;;;;;;;;;8.88;51.06;102381.75;6210984;23;19970;-87
2023/01/27 06:50:08;;;;;;;;;;;;;;;8.90;50.95;102394.91;6235811;23;19938;-87
2023/01/27 06:52:33;;;;;;;;;;;;;;;8.91;51.15;102396.56;6238004;23;19912;-87
2023/01/27 06:54:59;;;;;;;;;;;;;;;8.94;50.91;102398.84;6238554;23;20247;-87
2023/01/27 06:57:24;;;;;;;;;;;;;;;8.94;50.91;102398.84;6238582;22;20556;-86
2023/01/27 06:59:49;;;;;;;;;;;;;;;8.95;51.03;102401.31;6240107;23;19907;-87
2023/01/27 07:02:15;;;;;;;;;;;;;;;8.96;51.17;102397.59;6239099;23;19922;-87
2023/01/27 07:04:40;;;;;;;;;;;;;;;8.97;51.54;102401.09;6239314;23;19935;-87
2023/01/27 07:07:05;;;;;;;;;;;;;;;9.01;51.09;102399.72;6239230;22;20263;-87
2023/01/27 07:09:31;;;;;;;;;;;;;;;9.02;51.28;102404.03;6240997;23;19907;-86
2023/01/27 07:11:56;;;;;;;;;;;;;;;9.01;50.98;102411.22;6241511;23;20288;-87
2023/01/27 07:14:22;;;;;;;;;;;;;;;9.03;51.26;102403.84;6240891;23;20423;-87
2023/01/27 07:16:47;;;;;;;;;;;;;;;9.05;50.95;102422.34;6239286;23;19908;-87
2023/01/27 07:19:13;;;;;;;;;;;;;;;9.08;51.11;102427.31;6212589;23;19994;-87
2023/01/27 07:21:38;;;;;;;;;;;;;;;9.12;51.01;102427.72;6240328;23;19915;-87
2023/01/27 07:24:04;;;;;;;;;;;;;;;9.14;51.38;102421.16;6240272;23;19908;-87
2023/01/27 07:26:29;;;;;;;;;;;;;;;9.18;51.11;102432.31;6240024;23;19911;-87
2023/01/27 07:28:55;;;;;;;;;;;;;;;9.19;50.85;102423.25;6239843;22;19982;-87
2023/01/27 07:31:20;;;;;;;;;;;;;;;9.18;50.97;102427.78;6239954;23;19915;-87
2023/01/27 07:33:46;;;;;;;;;;;;;;;9.20;51.27;102428.41;6240167;23;20353;-87
2023/01/27 07:36:11;;;;;;;;;;;;;;;9.22;51.36;102431.72;6239006;23;19954;-87
2023/01/27 07:38:37;;;;;;;;;;;;;;;9.23;51.17;102435.22;6235808;22;20006;-86
2023/01/27 07:41:06;;;;;;;;;;;;;;;9.23;51.32;102437.88;6237754;22;19954;-85
2023/01/27 07:43:32;;;;;;;;;;;;;;;9.24;50.99;102436.84;6238289;22;20054;-85
2023/01/27 07:45:57;;;;;;;;;;;;;;;9.25;51.58;102442.00;6238610;22;19922;-85
2023/01/27 07:48:22;;;;;;;;;;;;;;;9.26;51.04;102440.97;6225394;23;20298;-86
2023/01/27 07:50:48;;;;;;;;;;;;;;;9.29;51.29;102451.28;6208573;23;19916;-86
2023/01/27 07:53:13;;;;;;;;;;;;;;;9.32;51.12;102445.53;6209986;23;19950;-86
2023/01/27 07:55:39;;;;;;;;;;;;;;;9.34;51.50;102442.69;6210340;23;19931;-86
2023/01/27 07:58:04;;;;;;;;;;;;;;;9.37;51.18;102451.13;6209791;23;20344;-86
2023/01/27 08:00:30;;;;;;;;;;;;;;;9.38;51.09;102447.44;6210761;23;19971;-86
2023/01/27 08:02:57;;;;;;;;;;;;;;;9.39;51.12;102448.25;6210935;23;20243;-86
2023/01/27 08:05:22;;;;;;;;;;;;;;;9.42;51.27;102460.41;6209688;23;20002;-86
2023/01/27 08:07:48;;;;;;;;;;;;;;;9.46;51.50;102470.50;6208027;23;19958;-85
2023/01/27 08:10:13;;;;;;;;;;;;;;;9.49;51.47;102471.94;6211415;23;19919;-86
2023/01/27 08:12:39;;;;;;;;;;;;;;;9.49;51.18;102467.41;6210742;23;19931;-86
2023/01/27 08:15:04;;;;;;;;;;;;;;;9.51;51.58;102467.22;6209827;23;20221;-85
2023/01/27 08:17:30;;;;;;;;;;;;;;;9.53;51.55;102473.22;6210028;23;19911;-86
2023/01/27 08:19:55;;;;;;;;;;;;;;;9.54;51.36;102475.69;6211352;23;19912;-86
2023/01/27 08:22:21;;;;;;;;;;;;;;;9.57;51.31;102469.13;6210157;23;19966;-86
2023/01/27 08:24:47;;;;;;;;;;;;;;;9.59;51.28;102480.44;6210265;23;19908;-86
2023/01/27 08:27:12;;;;;;;;;;;;;;;9.62;51.38;102472.03;6210541;23;19915;-85
2023/01/27 08:29:37;;;;;;;;;;;;;;;9.63;51.07;102476.34;6207977;23;19920;-86
2023/01/27 08:32:03;;;;;;;;;;;;;;;9.64;51.02;102484.16;6206988;23;19927;-85
2023/01/27 08:34:28;;;;;;;;;;;;;;;9.66;50.94;102482.13;6208189;23;19965;-85
2023/01/27 08:36:54;;;;;;;;;;;;;;;9.70;51.09;102487.91;6207721;23;20332;-85
2023/01/27 08:39:19;;;;;;;;;;;;;;;9.73;50.85;102484.84;6227950;23;19912;-85
2023/01/27 08:41:44;;;;;;;;;;;;;;;9.73;51.26;102481.34;6238103;23;19911;-86
2023/01/27 08:44:10;;;;;;;;;;;;;;;9.74;51.03;102483.81;6237786;23;20240;-87
2023/01/27 08:46:35;;;;;;;;;;;;;;;9.75;51.20;102488.13;6237650;23;19913;-87
2023/01/27 08:49:00;;;;;;;;;;;;;;;9.80;50.99;102491.03;6238581;22;20150;-87
2023/01/27 08:51:26;;;;;;;;;;;;;;;9.82;50.91;102485.47;6238767;23;19953;-87
2023/01/27 08:53:51;;;;;;;;;;;;;;;9.82;50.95;102483.63;6211126;23;19912;-87
2023/01/27 08:56:17;;;;;;;;;;;;;;;9.84;51.08;102489.59;6238403;23;19966;-87
2023/01/27 08:58:44;;;;;;;;;;;;;;;9.86;50.92;102495.56;6238331;22;19915;-87
2023/01/27 09:01:10;;;;;;;;;;;;;;;9.91;51.31;102486.97;6238460;23;19912;-86
2023/01/27 09:03:35;;;;;;;;;;;;;;;9.93;50.88;102501.78;6237382;23;19912;-87
2023/01/27 09:06:01;;;;;;;;;;;;;;;9.94;50.85;102499.94;6239000;23;19911;-87
2023/01/27 09:08:26;;;;;;;;;;;;;;;9.98;50.91;102506.53;6237108;22;19965;-87
2023/01/27 09:10:52;;;;;;;;;;;;;;;9.98;50.84;102507.38;6238434;23;19987;-87
2023/01/27 09:13:17;;;;;;;;;;;;;;;10.00;50.86;102507.16;6237588;23;19912;-84
2023/01/27 09:15:43;;;;;;;;;;;;;;;10.01;51.05;102514.16;6238539;23;19919;-87
2023/01/27 09:18:09;;;;;;;;;;;;;;;10.02;50.86;102515.81;6236514;22;20000;-86
2023/01/27 09:20:36;;;;;;;;;;;;;;;10.00;50.77;102513.34;6238400;23;19997;-87
2023/01/27 09:23:02;;;;;;;;;;;;;;;10.02;50.77;102523.03;6238583;23;19947;-86
2023/01/27 09:25:27;;;;;;;;;;;;;;;10.03;50.93;102520.16;6239073;23;19911;-85
2023/01/27 09:27:55;;;;;;;;;;;;;;;10.05;50.91;102520.75;6238712;22;19962;-87
2023/01/27 09:30:21;;;;;;;;;;;;;;;10.04;51.00;102527.16;6239108;23;19918;-86
2023/01/27 09:32:46;;;;;;;;;;;;;;;10.05;50.92;102527.97;6211040;23;19907;-87
2023/01/27 09:35:12;;;;;;;;;;;;;;;10.06;50.75;102532.34;6239238;23;19961;-86
2023/01/27 09:37:46;;;;;;;;;;;;;;;10.05;50.40;102531.47;6238189;22;20477;-85
2023/01/27 09:40:20;;;;;;;;;;;;;;;10.07;50.82;102533.97;6235113;23;19946;-87
2023/01/27 09:43:11;;;;;;;;;;;;;;;10.09;50.61;102531.94;6238148;23;19908;-87
2023/01/27 09:45:37;;;;;;;;;;;;;;;10.11;50.55;102529.88;6191238;23;19914;-86
2023/01/27 09:48:20;;;;;;;;;;;;;;;10.14;50.78;102540.19;6238289;22;19912;-87
2023/01/27 09:50:49;;;;;;;;;;;;;;;10.14;50.49;102529.47;6238471;23;19915;-86
2023/01/27 09:53:20;;;;;;;;;;;;;;;10.14;50.41;102541.00;6237604;23;19911;-85
2023/01/27 09:55:57;;;;;;;;;;;;;;;10.14;50.31;102540.19;6238766;23;19915;-84
2023/01/27 09:58:25;;;;;;;;;;;;;;;10.15;50.40;102547.19;6238098;22;19908;-85
2023/01/27 10:00:56;;;;;;;;;;;;;;;10.17;50.40;102545.94;6237304;23;19917;-85
2023/01/27 10:03:30;;;;;;;;;;;;;;;10.16;50.39;102544.31;6237489;23;19957;-85
2023/01/27 10:05:58;;;;;;;;;;;;;;;10.21;50.65;102549.06;6238574;23;20255;-84
2023/01/27 10:08:30;;;;;;;;;;;;;;;10.25;50.48;102551.16;6236217;22;19916;-85
2023/01/27 10:10:55;;;;;;;;;;;;;;;10.29;50.57;102555.09;6237030;23;19934;-85
2023/01/27 10:13:30;;;;;;;;;;;;;;;10.32;50.43;102548.50;6237933;23;20297;-85
2023/01/27 10:16:20;;;;;;;;;;;;;;;10.32;50.15;102547.69;6238294;23;19930;-85
2023/01/27 10:18:49;;;;;;;;;;;;;;;10.29;50.33;102547.06;6237836;22;19912;-85
2023/01/27 10:21:20;;;;;;;;;;;;;;;10.35;50.52;102553.44;6210828;23;20336;-85
2023/01/27 10:24:00;;;;;;;;;;;;;;;10.37;50.41;102551.38;6237461;23;19934;-85
2023/01/27 10:26:30;;;;;;;;;;;;;;;10.39;50.38;102549.34;6238348;23;19911;-85
2023/01/27 10:29:12;;;;;;;;;;;;;;;10.41;50.19;102541.09;6236696;22;19916;-84
2023/01/27 10:31:59;;;;;;;;;;;;;;;10.42;50.32;102550.81;6237599;23;19919;-85
2023/01/27 10:34:30;;;;;;;;;;;;;;;10.46;50.57;102544.84;6236901;23;20292;-85
2023/01/27 10:36:59;;;;;;;;;;;;;;;10.49;50.20;102546.28;6237695;23;20295;-85
2023/01/27 10:39:24;;;;;;;;;;;;;;;10.53;50.34;102555.56;6234870;22;19958;-85
2023/01/27 10:41:58;;;;;;;;;;;;;;;10.56;50.25;102552.47;6236735;23;20228;-85
2023/01/27 10:44:24;;;;;;;;;;;;;;;10.59;50.04;102554.72;6211215;23;19911;-85
2023/01/27 10:46:57;;;;;;;;;;;;;;;10.63;50.06;102556.00;6238135;23;19942;-85
2023/01/27 10:49:29;;;;;;;;;;;;;;;10.64;50.13;102559.50;6238006;22;19942;-84
2023/01/27 10:51:58;;;;;;;;;;;;;;;10.63;50.05;102556.00;6238211;23;19912;-85
2023/01/27 10:54:29;;;;;;;;;;;;;;;10.64;49.86;102562.19;6237504;23;19950;-85
2023/01/27 10:57:14;;;;;;;;;;;;;;;10.63;49.79;102556.00;6237354;23;20307;-84
2023/01/27 10:59:44;;;;;;;;;;;;;;;10.65;49.80;102555.78;6175376;23;20357;-86
2023/01/27 11:02:24;;;;;;;;;;;;;;;10.68;50.06;102552.69;6237187;23;19918;-87
2023/01/27 11:04:58;;;;;;;;;;;;;;;10.74;49.93;102562.59;6210263;23;19951;-86
2023/01/27 11:07:24;;;;;;;;;;;;;;;10.76;49.58;102560.53;6236559;22;20322;-85
2023/01/27 11:09:57;;;;;;;;;;;;;;;10.76;49.88;102550.63;6237917;23;19915;-85
2023/01/27 11:12:33;;;;;;;;;;;;;;;10.80;49.39;102549.22;6236616;23;19911;-85
2023/01/27 11:15:00;;;;;;;;;;;;;;;10.84;49.56;102553.13;6236330;23;19911;-86
2023/01/27 11:17:36;;;;;;;;;;;;;;;10.87;49.66;102560.75;6234869;22;19965;-86
2023/01/27 11:20:04;;;;;;;;;;;;;;;10.87;49.39;102563.44;6237163;23;19907;-85
2023/01/27 11:22:35;;;;;;;;;;;;;;;10.87;49.19;102566.09;6237258;23;19938;-85
2023/01/27 11:25:04;;;;;;;;;;;;;;;10.89;49.13;102563.22;6236973;23;20384;-86
2023/01/27 11:27:35;;;;;;;;;;;;;;;10.85;48.96;102562.81;6237132;22;20248;-85
2023/01/27 11:30:08;;;;;;;;;;;;;;;10.84;49.13;102571.06;6237497;23;20239;-84
2023/01/27 11:32:40;;;;;;;;;;;;;;;10.84;48.95;102571.06;6236652;23;19911;-85
2023/01/27 11:35:13;;;;;;;;;;;;;;;10.84;49.00;102571.88;6210284;23;19959;-85
2023/01/27 11:37:40;;;;;;;;;;;;;;;10.81;48.97;102579.53;6236996;22;20110;-86
2023/01/27 11:40:13;;;;;;;;;;;;;;;10.78;48.94;102572.72;6235070;23;20319;-85
2023/01/27 11:42:39;;;;;;;;;;;;;;;10.79;48.75;102576.22;6236352;23;19946;-86
2023/01/27 11:45:04;;;;;;;;;;;;;;;10.81;48.73;102584.88;6237230;23;20305;-86
2023/01/27 11:47:35;;;;;;;;;;;;;;;10.81;48.69;102580.34;6235506;22;20239;-86
2023/01/27 11:50:01;;;;;;;;;;;;;;;10.84;49.05;102579.09;6236394;23;20307;-85
2023/01/27 11:52:27;;;;;;;;;;;;;;;10.86;49.14;102587.78;6236942;23;19914;-86
2023/01/27 11:55:15;;;;;;;;;;;;;;;10.88;48.80;102583.84;6237298;23;19908;-86
2023/01/27 11:57:42;;;;;;;;;;;;;;;10.90;48.65;102578.28;6235951;22;19911;-85
2023/01/27 12:00:23;;;;;;;;;;;;;;;10.93;48.80;102580.53;6236864;23;19912;-85
2023/01/27 12:02:54;;;;;;;;;;;;;;;10.93;48.58;102577.84;6237116;23;19912;-86
2023/01/27 12:05:36;;;;;;;;;;;;;;;10.93;48.77;102575.19;6237568;23;20390;-85
2023/01/27 12:08:03;;;;;;;;;;;;;;;10.97;48.57;102584.50;6236889;22;19915;-85
2023/01/27 12:10:37;;;;;;;;;;;;;;;10.99;48.80;102574.38;6238036;23;20286;-85
2023/01/27 12:13:08;;;;;;;;;;;;;;;10.98;48.31;102578.09;6235584;23;19911;-85
2023/01/27 12:15:34;;;;;;;;;;;;;;;10.94;48.37;102563.41;6237311;23;19918;-85
2023/01/27 12:18:02;;;;;;;;;;;;;;;10.89;48.41;102574.78;6209641;23;20231;-85
2023/01/27 12:20:38;;;;;;;;;;;;;;;10.85;48.36;102570.03;6237174;23;19939;-86
2023/01/27 12:23:24;;;;;;;;;;;;;;;10.84;48.32;102568.38;6237348;23;19959;-86
2023/01/27 12:25:53;;;;;;;;;;;;;;;10.84;48.23;102576.44;6235719;23;19916;-86
2023/01/27 12:28:45;;;;;;;;;;;;;;;10.85;48.56;102570.03;6235770;22;19919;-84
2023/01/27 12:31:12;;;;;;;;;;;;;;;10.86;48.24;102567.13;6230933;23;20290;-86
2023/01/27 12:33:41;;;;;;;;;;;;;;;10.85;48.36;102570.03;6237076;23;19912;-86
2023/01/27 12:36:13;;;;;;;;;;;;;;;10.87;48.14;102570.66;6238089;23;20290;-85
2023/01/27 12:38:43;;;;;;;;;;;;;;;10.87;47.92;102567.97;6235970;22;20375;-85
2023/01/27 12:41:11;;;;;;;;;;;;;;;10.87;47.96;102566.09;6238038;23;19915;-85
2023/01/27 12:43:54;;;;;;;;;;;;;;;10.89;48.04;102563.22;6237199;23;19912;-85
2023/01/27 12:46:21;;;;;;;;;;;;;;;10.90;47.99;102559.50;6239121;23;19908;-85
2023/01/27 12:48:48;;;;;;;;;;;;;;;10.92;48.03;102570.03;6237404;22;19994;-85
2023/01/27 12:51:33;;;;;;;;;;;;;;;10.92;48.00;102568.16;6211937;23;19981;-86
2023/01/27 12:54:13;;;;;;;;;;;;;;;10.93;48.04;102564.44;6238474;23;19916;-87
2023/01/27 12:56:39;;;;;;;;;;;;;;;10.94;47.62;102573.31;6239375;23;19916;-85
2023/01/27 12:59:04;;;;;;;;;;;;;;;10.91;47.92;102566.50;6238287;22;20598;-85
2023/01/27 13:01:32;;;;;;;;;;;;;;;10.93;47.63;102571.66;6239018;23;19911;-85
2023/01/27 13:04:00;;;;;;;;;;;;;;;10.96;47.96;102572.13;6239055;23;19943;-85
2023/01/27 13:06:29;;;;;;;;;;;;;;;10.98;47.57;102570.03;6239286;23;19998;-85
2023/01/27 13:08:57;;;;;;;;;;;;;;;11.00;47.72;102565.28;6238156;22;19998;-86